Quanah, Texas
Current Conditions -  °F | °C
As of 8:56 PM on Wednesday 22 Oct 2014 (Local Time) from KF05 Reporting Station
Broken Clouds Broken Clouds  
Wind Chill: 63°   Ceiling: 10000
Heat Index: 63°   Visibility: 5mi
Dew Point: 59°   Wind: 0mph
Humidity: 88%   Direction: NA
Pressure: 30.12"   Gusts: NA
Location:  34.3°N, 99.74°W
Report Text: KF05 230156Z AUTO 00000KT 5SM SCT070 BKN100 17/15 A3012 RMK AO2
Loading
Personal Weather Stations






























Interactive Weather Map
Tropical Storm Tracking
New forecast layout! Learn more

10-Day Weather Forecast

Advertisements
Track Severe Weather on mobile